Delta Virtual Airport Information Service

Hong Kong International Airport

ICAO: VHHH Country: Hong Kong
Latitude: 22.3089 Longitude: 113.915
Latest Arrival : DAC237 (ZSPD-VHHH) Latest Departure : UAL180 (VHHH-KEWR)


WX CaptureLIVE
Data provided by noaa.gov | Fetched at 13:17:22

METAR : VHHH 301800Z 08013KT 9999 FEW014 SCT025 26/24 Q1007 NOSIG

TAF : VHHH 301700Z 3018/0124 07015KT 9999 FEW020 SCT030 TX30/0106Z TN26/3022Z TN26/0122Z TEMPO 3020/0102 4000 SHRA FEW010CB SCT020


Runway Data for VHHH
Data provided by openaviationdata.com

Runway ID Mag Var Hdg Length Elevation Surface ILS Freq ILS Id ILS Slope
07L -2 72° 12431 ft 28 ft Asphalt 111.1 IZSL 3
07R -2 72° 12431 ft 28 ft Asphalt 109.3 ISR 3
25L -2 252° 12431 ft 28 ft Asphalt 108.9 IFL 3
25R -2 252° 12431 ft 28 ft Asphalt 110.9 ITFR 3

Hong Kong International Airport, Hong Kong
Use only for reference purposes



Not for navigational purposes.